Time;durP1;ratioP1;P1;durP2;ratioP2;P2;SDS_P1;SDS_P2;PMS_P1;PMS_P2;Temp;Humidity;BMP_temperature;BMP_pressure;BME280_temperature;BME280_humidity;BME280_pressure;Samples;Min_cycle;Max_cycle;Signal;HPM_P1;HPM_P2
2024/02/21 00:01:08;;;;;;;7.90;4.15;;;;;;;;;;5063224;28;20121;-70
2024/02/21 00:03:34;;;;;;;11.77;5.35;;;;;;;;;;5066195;28;20107;-69
2024/02/21 00:06:01;;;;;;;12.38;4.18;;;;;;;;;;5060596;28;20136;-68
2024/02/21 00:08:27;;;;;;;12.45;5.43;;;;;;;;;;5061250;28;20432;-70
2024/02/21 00:10:53;;;;;;;13.43;6.10;;;;;;;;;;5059642;28;20021;-69
2024/02/21 00:13:19;;;;;;;11.13;6.35;;;;;;;;;;5057144;28;20492;-69
2024/02/21 00:15:45;;;;;;;8.85;4.80;;;;;;;;;;5057203;28;20524;-69
2024/02/21 00:18:12;;;;;;;9.63;4.13;;;;;;;;;;5086290;28;20489;-69
2024/02/21 00:20:38;;;;;;;8.18;3.67;;;;;;;;;;5062523;28;20025;-68
2024/02/21 00:23:05;;;;;;;8.20;4.25;;;;;;;;;;5061573;28;20523;-69
2024/02/21 00:25:31;;;;;;;6.20;3.40;;;;;;;;;;5060997;28;20090;-68
2024/02/21 00:27:57;;;;;;;7.40;3.33;;;;;;;;;;5063988;28;20129;-68
2024/02/21 00:30:23;;;;;;;5.30;3.53;;;;;;;;;;5057257;28;20048;-69
2024/02/21 00:32:49;;;;;;;10.30;3.72;;;;;;;;;;5064432;28;20032;-68
2024/02/21 00:35:16;;;;;;;7.10;4.22;;;;;;;;;;5056675;28;20029;-68
2024/02/21 00:37:42;;;;;;;6.43;3.72;;;;;;;;;;5056269;28;20028;-69
2024/02/21 00:40:08;;;;;;;5.00;2.70;;;;;;;;;;5056943;28;20032;-68
2024/02/21 00:42:34;;;;;;;4.90;2.35;;;;;;;;;;5054719;28;20029;-68
2024/02/21 00:45:01;;;;;;;2.33;2.13;;;;;;;;;;5059816;28;20076;-68
2024/02/21 00:47:27;;;;;;;2.70;2.15;;;;;;;;;;5062485;28;20392;-68
2024/02/21 00:49:53;;;;;;;2.70;2.17;;;;;;;;;;5055344;28;20036;-68
2024/02/21 00:52:19;;;;;;;1.65;1.55;;;;;;;;;;5064469;28;20043;-68
2024/02/21 00:54:46;;;;;;;9.13;2.30;;;;;;;;;;5069438;28;20059;-68
2024/02/21 00:57:12;;;;;;;1.98;1.88;;;;;;;;;;5062128;28;20032;-68
2024/02/21 00:59:38;;;;;;;2.80;1.98;;;;;;;;;;5057857;28;20032;-68
2024/02/21 01:02:04;;;;;;;2.30;1.45;;;;;;;;;;5063136;28;20401;-68
2024/02/21 01:04:30;;;;;;;1.90;1.80;;;;;;;;;;5060368;28;20427;-69
2024/02/21 01:06:56;;;;;;;1.85;1.70;;;;;;;;;;5058022;28;20768;-69
2024/02/21 01:09:23;;;;;;;1.95;1.45;;;;;;;;;;5057798;28;20805;-69
2024/02/21 01:11:49;;;;;;;2.78;1.77;;;;;;;;;;5063244;28;20074;-69
2024/02/21 01:14:15;;;;;;;1.60;1.50;;;;;;;;;;5066764;28;20126;-69
2024/02/21 01:16:41;;;;;;;1.67;1.58;;;;;;;;;;5063219;28;20028;-69
2024/02/21 01:19:08;;;;;;;3.28;1.83;;;;;;;;;;5058566;28;20078;-69
2024/02/21 01:21:34;;;;;;;1.92;1.45;;;;;;;;;;5058253;28;20396;-68
2024/02/21 01:24:00;;;;;;;4.32;1.85;;;;;;;;;;5061312;28;20032;-69
2024/02/21 01:26:26;;;;;;;1.20;1.20;;;;;;;;;;5061405;28;20135;-68
2024/02/21 01:28:52;;;;;;;1.30;1.30;;;;;;;;;;5060580;28;20465;-69
2024/02/21 01:31:19;;;;;;;1.42;1.33;;;;;;;;;;5074896;28;20047;-69
2024/02/21 01:33:45;;;;;;;2.55;1.45;;;;;;;;;;5064215;28;20028;-69
2024/02/21 01:36:11;;;;;;;4.50;1.77;;;;;;;;;;5062311;28;20043;-69
2024/02/21 01:38:37;;;;;;;1.65;1.55;;;;;;;;;;5059959;28;20033;-69
2024/02/21 01:41:03;;;;;;;2.33;2.10;;;;;;;;;;5068693;28;20043;-69
2024/02/21 01:43:29;;;;;;;2.33;2.08;;;;;;;;;;5064943;28;20030;-68
2024/02/21 01:45:56;;;;;;;2.22;1.80;;;;;;;;;;5057227;28;20024;-68
2024/02/21 01:48:23;;;;;;;1.83;1.73;;;;;;;;;;5059241;28;20036;-69
2024/02/21 01:50:53;;;;;;;4.63;2.00;;;;;;;;;;5058491;28;20026;-69
2024/02/21 01:53:23;;;;;;;3.05;1.98;;;;;;;;;;5085519;28;20492;-69
2024/02/21 01:55:50;;;;;;;1.77;1.58;;;;;;;;;;5054306;28;20492;-69
2024/02/21 01:58:17;;;;;;;1.20;1.20;;;;;;;;;;5063205;28;20110;-69
2024/02/21 02:00:44;;;;;;;1.10;1.10;;;;;;;;;;5053202;28;20063;-69
2024/02/21 02:03:16;;;;;;;2.20;1.30;;;;;;;;;;5060326;28;20058;-69
2024/02/21 02:05:44;;;;;;;1.00;1.00;;;;;;;;;;5061681;28;20035;-69
2024/02/21 02:08:11;;;;;;;1.15;1.15;;;;;;;;;;5057359;28;20028;-68
2024/02/21 02:10:38;;;;;;;3.05;1.30;;;;;;;;;;5065240;28;20384;-68
2024/02/21 02:13:04;;;;;;;1.42;1.42;;;;;;;;;;5061990;28;20043;-69
2024/02/21 02:15:38;;;;;;;1.00;1.00;;;;;;;;;;5063978;28;20020;-69
2024/02/21 02:18:04;;;;;;;0.93;0.93;;;;;;;;;;5056741;28;20420;-69
2024/02/21 02:20:30;;;;;;;1.00;1.00;;;;;;;;;;5060361;28;20112;-69
2024/02/21 02:22:57;;;;;;;1.00;1.00;;;;;;;;;;5058983;28;20041;-69
2024/02/21 02:25:24;;;;;;;1.05;1.05;;;;;;;;;;5058173;28;20362;-69
2024/02/21 02:27:50;;;;;;;0.90;0.90;;;;;;;;;;5052653;28;20032;-69
2024/02/21 02:30:16;;;;;;;1.00;1.00;;;;;;;;;;5055378;28;20448;-68
2024/02/21 02:32:46;;;;;;;1.00;1.00;;;;;;;;;;5063127;28;20054;-67
2024/02/21 02:35:12;;;;;;;1.00;1.00;;;;;;;;;;5061466;28;20043;-68
2024/02/21 02:37:38;;;;;;;0.90;0.90;;;;;;;;;;5058403;28;20305;-68
2024/02/21 02:40:06;;;;;;;0.80;0.80;;;;;;;;;;5056919;28;20174;-68
2024/02/21 02:42:32;;;;;;;0.93;0.93;;;;;;;;;;5064009;28;20443;-68
2024/02/21 02:44:58;;;;;;;0.90;0.90;;;;;;;;;;5069332;28;20996;-68
2024/02/21 02:47:24;;;;;;;0.90;0.90;;;;;;;;;;5046103;28;20025;-67
2024/02/21 02:49:50;;;;;;;0.93;0.93;;;;;;;;;;5057685;28;20519;-68
2024/02/21 02:52:20;;;;;;;1.00;1.00;;;;;;;;;;5054086;28;20032;-68
2024/02/21 02:54:51;;;;;;;1.00;1.00;;;;;;;;;;5060654;28;20143;-68
2024/02/21 02:57:17;;;;;;;0.90;0.90;;;;;;;;;;5059338;28;20190;-68
2024/02/21 02:59:47;;;;;;;0.90;0.90;;;;;;;;;;5037961;28;20475;-69
2024/02/21 03:02:13;;;;;;;1.00;1.00;;;;;;;;;;5089022;28;20041;-69
2024/02/21 03:04:43;;;;;;;0.90;0.90;;;;;;;;;;5050646;28;20082;-69
2024/02/21 03:07:11;;;;;;;1.08;1.08;;;;;;;;;;5059839;28;20068;-70
2024/02/21 03:09:38;;;;;;;0.90;0.90;;;;;;;;;;5056373;28;20098;-70
2024/02/21 03:12:04;;;;;;;1.00;1.00;;;;;;;;;;5059503;28;20050;-69
2024/02/21 03:14:31;;;;;;;1.00;1.00;;;;;;;;;;5059068;28;20032;-69
2024/02/21 03:16:57;;;;;;;0.90;0.90;;;;;;;;;;5061301;28;20507;-70
2024/02/21 03:19:23;;;;;;;1.10;1.10;;;;;;;;;;5062549;28;20021;-69
2024/02/21 03:21:50;;;;;;;1.00;1.00;;;;;;;;;;5065181;28;20396;-69
2024/02/21 03:24:17;;;;;;;0.90;0.90;;;;;;;;;;5061476;28;20043;-69
2024/02/21 03:26:43;;;;;;;1.15;1.15;;;;;;;;;;5048551;28;20029;-69
2024/02/21 03:29:09;;;;;;;1.00;1.00;;;;;;;;;;5066499;28;20035;-70
2024/02/21 03:31:35;;;;;;;1.02;1.02;;;;;;;;;;5061824;28;20029;-70
2024/02/21 03:34:02;;;;;;;0.90;0.90;;;;;;;;;;5060635;28;20033;-70
2024/02/21 03:36:28;;;;;;;1.10;1.10;;;;;;;;;;5060205;28;20058;-70
2024/02/21 03:38:55;;;;;;;1.00;1.00;;;;;;;;;;5064993;28;20169;-72
2024/02/21 03:41:21;;;;;;;0.90;0.90;;;;;;;;;;5065557;28;20028;-71
2024/02/21 03:43:47;;;;;;;1.00;1.00;;;;;;;;;;5064937;28;20119;-70
2024/02/21 03:46:14;;;;;;;1.13;1.13;;;;;;;;;;5062572;28;20050;-72
2024/02/21 03:48:40;;;;;;;0.90;0.90;;;;;;;;;;5063008;28;20075;-69
2024/02/21 03:51:06;;;;;;;0.90;0.90;;;;;;;;;;5058694;28;20074;-70
2024/02/21 03:53:33;;;;;;;1.00;1.00;;;;;;;;;;5064620;28;20029;-70
2024/02/21 03:56:03;;;;;;;0.80;0.80;;;;;;;;;;5058930;28;20044;-70
2024/02/21 03:58:29;;;;;;;1.00;1.00;;;;;;;;;;5060396;28;20107;-69
2024/02/21 04:00:56;;;;;;;0.90;0.90;;;;;;;;;;5066944;28;20048;-68
2024/02/21 04:03:22;;;;;;;0.98;0.98;;;;;;;;;;5059446;28;20021;-68
2024/02/21 04:05:48;;;;;;;1.00;1.00;;;;;;;;;;5063543;28;20039;-69
2024/02/21 04:08:14;;;;;;;0.90;0.90;;;;;;;;;;5062401;28;20496;-69
2024/02/21 04:10:41;;;;;;;0.90;0.90;;;;;;;;;;5060377;28;20130;-69
2024/02/21 04:13:07;;;;;;;1.00;1.00;;;;;;;;;;5057687;28;20032;-69
2024/02/21 04:15:33;;;;;;;0.90;0.90;;;;;;;;;;5062243;28;20062;-68
2024/02/21 04:17:59;;;;;;;0.90;0.90;;;;;;;;;;5061759;28;20043;-70
2024/02/21 04:20:26;;;;;;;1.00;1.00;;;;;;;;;;5059885;28;20040;-69
2024/02/21 04:22:52;;;;;;;0.93;0.93;;;;;;;;;;5057703;28;20062;-69
2024/02/21 04:25:19;;;;;;;0.90;0.90;;;;;;;;;;5058904;28;20028;-69
2024/02/21 04:27:46;;;;;;;0.90;0.90;;;;;;;;;;5054087;28;20025;-69
2024/02/21 04:30:13;;;;;;;0.90;0.90;;;;;;;;;;5061490;28;20032;-68
2024/02/21 04:32:40;;;;;;;0.93;0.93;;;;;;;;;;5063114;28;20021;-73
2024/02/21 04:35:07;;;;;;;1.00;1.00;;;;;;;;;;5062060;28;20540;-69
2024/02/21 04:37:34;;;;;;;0.70;0.70;;;;;;;;;;5067047;28;20039;-70
2024/02/21 04:40:01;;;;;;;0.90;0.90;;;;;;;;;;5067372;28;20477;-69
2024/02/21 04:42:27;;;;;;;0.90;0.90;;;;;;;;;;5059113;28;20073;-69
2024/02/21 04:44:53;;;;;;;0.90;0.90;;;;;;;;;;5055025;28;20029;-70
2024/02/21 04:47:19;;;;;;;0.90;0.90;;;;;;;;;;5061029;28;20619;-72
2024/02/21 04:49:46;;;;;;;0.90;0.90;;;;;;;;;;5065670;28;20029;-70
2024/02/21 04:52:12;;;;;;;0.90;0.90;;;;;;;;;;5063300;28;20056;-70
2024/02/21 04:54:39;;;;;;;0.90;0.90;;;;;;;;;;5060841;28;20040;-69
2024/02/21 04:57:06;;;;;;;0.90;0.90;;;;;;;;;;5050605;28;20054;-73
2024/02/21 04:59:32;;;;;;;0.90;0.90;;;;;;;;;;5062950;28;20028;-69
2024/02/21 05:01:58;;;;;;;0.80;0.80;;;;;;;;;;5055348;28;20037;-69
2024/02/21 05:04:24;;;;;;;0.80;0.80;;;;;;;;;;5054094;28;20025;-69
2024/02/21 05:06:51;;;;;;;0.80;0.80;;;;;;;;;;5060924;28;20024;-69
2024/02/21 05:09:17;;;;;;;0.85;0.85;;;;;;;;;;5083647;28;20111;-69
2024/02/21 05:11:43;;;;;;;0.80;0.80;;;;;;;;;;5052003;28;20357;-69
2024/02/21 05:14:09;;;;;;;0.90;0.90;;;;;;;;;;5056680;28;20044;-69
2024/02/21 05:16:35;;;;;;;1.10;1.10;;;;;;;;;;5054692;28;20068;-70
2024/02/21 05:19:02;;;;;;;0.85;0.85;;;;;;;;;;5060588;28;20040;-69
2024/02/21 05:21:29;;;;;;;1.00;1.00;;;;;;;;;;5050466;28;20055;-70
2024/02/21 05:23:55;;;;;;;0.80;0.80;;;;;;;;;;5057982;28;20069;-69
2024/02/21 05:26:25;;;;;;;0.82;0.82;;;;;;;;;;5057274;28;20426;-69
2024/02/21 05:28:51;;;;;;;0.73;0.73;;;;;;;;;;5058566;28;20036;-69
2024/02/21 05:31:21;;;;;;;0.80;0.80;;;;;;;;;;5064345;28;20107;-69
2024/02/21 05:33:47;;;;;;;0.90;0.90;;;;;;;;;;5056567;28;20107;-70
2024/02/21 05:36:14;;;;;;;0.80;0.80;;;;;;;;;;5061504;28;20028;-69
2024/02/21 05:38:40;;;;;;;0.80;0.80;;;;;;;;;;5060590;28;20487;-71
2024/02/21 05:41:06;;;;;;;0.70;0.70;;;;;;;;;;5064642;28;20392;-73
2024/02/21 05:43:33;;;;;;;0.90;0.90;;;;;;;;;;5059253;28;20523;-72
2024/02/21 05:45:59;;;;;;;0.90;0.90;;;;;;;;;;5053248;28;20037;-73
2024/02/21 05:48:25;;;;;;;0.90;0.90;;;;;;;;;;5050897;28;20576;-68
2024/02/21 05:50:51;;;;;;;0.80;0.80;;;;;;;;;;5053913;28;20024;-71
2024/02/21 05:53:18;;;;;;;1.00;1.00;;;;;;;;;;5063706;28;20025;-69
2024/02/21 05:55:44;;;;;;;0.95;0.95;;;;;;;;;;5051054;28;20140;-69
2024/02/21 05:58:13;;;;;;;1.00;1.00;;;;;;;;;;5054148;28;20057;-70
2024/02/21 06:00:39;;;;;;;2.33;1.17;;;;;;;;;;5054585;28;20821;-70
2024/02/21 06:03:07;;;;;;;0.80;0.80;;;;;;;;;;5061042;28;20036;-70
2024/02/21 06:05:38;;;;;;;2.53;0.95;;;;;;;;;;5054470;28;20665;-70
2024/02/21 06:08:05;;;;;;;1.00;1.00;;;;;;;;;;5063390;28;20036;-70
2024/02/21 06:10:31;;;;;;;0.88;0.88;;;;;;;;;;5063339;28;20029;-73
2024/02/21 06:12:57;;;;;;;0.95;0.95;;;;;;;;;;5059393;28;20028;-69
2024/02/21 06:15:23;;;;;;;0.90;0.90;;;;;;;;;;5056607;28;20068;-69
2024/02/21 06:17:49;;;;;;;0.90;0.90;;;;;;;;;;5060449;28;20273;-69
2024/02/21 06:20:17;;;;;;;0.80;0.80;;;;;;;;;;5063502;28;20032;-68
2024/02/21 06:22:43;;;;;;;0.93;0.93;;;;;;;;;;5060151;28;20484;-70
2024/02/21 06:25:09;;;;;;;1.10;1.10;;;;;;;;;;5053607;28;20088;-70
2024/02/21 06:27:35;;;;;;;0.90;0.90;;;;;;;;;;5061410;28;20033;-71
2024/02/21 06:30:02;;;;;;;1.00;1.00;;;;;;;;;;5060448;28;20032;-71
2024/02/21 06:32:29;;;;;;;1.00;1.00;;;;;;;;;;5056223;28;20032;-70
2024/02/21 06:34:55;;;;;;;0.90;0.90;;;;;;;;;;5060163;28;20436;-70
2024/02/21 06:37:21;;;;;;;1.00;1.00;;;;;;;;;;5060584;28;20486;-70
2024/02/21 06:39:47;;;;;;;1.35;0.95;;;;;;;;;;5062500;28;20036;-70
2024/02/21 06:42:14;;;;;;;0.95;0.95;;;;;;;;;;5061882;28;20047;-69
2024/02/21 06:44:40;;;;;;;1.05;0.90;;;;;;;;;;5053942;28;20043;-71
2024/02/21 06:47:08;;;;;;;0.90;0.90;;;;;;;;;;5059097;28;20029;-70
2024/02/21 06:49:34;;;;;;;0.90;0.90;;;;;;;;;;5061103;28;20486;-69
2024/02/21 06:52:00;;;;;;;0.90;0.90;;;;;;;;;;5062758;28;20025;-70
2024/02/21 06:54:26;;;;;;;0.80;0.80;;;;;;;;;;5063201;28;20249;-70
2024/02/21 06:56:53;;;;;;;1.42;0.90;;;;;;;;;;5064644;28;21514;-69
2024/02/21 06:59:19;;;;;;;0.85;0.85;;;;;;;;;;5062300;28;20142;-69
2024/02/21 07:01:50;;;;;;;0.80;0.80;;;;;;;;;;5055476;28;20108;-71
2024/02/21 07:04:16;;;;;;;0.90;0.90;;;;;;;;;;5062057;28;20487;-69
2024/02/21 07:06:43;;;;;;;0.90;0.90;;;;;;;;;;5060690;28;20024;-72
2024/02/21 07:09:09;;;;;;;1.63;0.98;;;;;;;;;;5060433;28;20087;-68
2024/02/21 07:11:35;;;;;;;0.90;0.90;;;;;;;;;;5061148;28;20021;-70
2024/02/21 07:14:01;;;;;;;0.90;0.90;;;;;;;;;;5063300;28;20111;-72
2024/02/21 07:16:28;;;;;;;0.90;0.90;;;;;;;;;;5062844;28;20073;-71
2024/02/21 07:18:55;;;;;;;0.88;0.88;;;;;;;;;;5067192;28;20543;-72
2024/02/21 07:21:22;;;;;;;0.90;0.90;;;;;;;;;;5046637;28;20039;-72
2024/02/21 07:23:48;;;;;;;1.00;1.00;;;;;;;;;;5070755;28;20064;-73
2024/02/21 07:26:14;;;;;;;0.90;0.90;;;;;;;;;;5072617;28;20474;-73
2024/02/21 07:28:40;;;;;;;1.10;1.10;;;;;;;;;;5072640;28;20411;-72
2024/02/21 07:31:06;;;;;;;0.80;0.80;;;;;;;;;;5074026;28;20039;-72
2024/02/21 07:33:32;;;;;;;0.90;0.90;;;;;;;;;;5077673;28;20383;-72
2024/02/21 07:35:59;;;;;;;0.82;0.82;;;;;;;;;;5074638;28;20161;-71
2024/02/21 07:38:25;;;;;;;0.90;0.90;;;;;;;;;;5070019;28;20024;-69
2024/02/21 07:40:51;;;;;;;1.00;1.00;;;;;;;;;;5075090;28;20038;-72
2024/02/21 07:43:17;;;;;;;0.80;0.80;;;;;;;;;;5071346;28;20055;-71
2024/02/21 07:45:43;;;;;;;1.73;0.90;;;;;;;;;;5072749;28;20052;-70
2024/02/21 07:48:10;;;;;;;1.10;1.10;;;;;;;;;;5075368;28;20029;-73
2024/02/21 07:50:36;;;;;;;0.90;0.90;;;;;;;;;;5080439;28;20148;-71
2024/02/21 07:53:02;;;;;;;1.00;1.00;;;;;;;;;;5069294;28;20024;-73
2024/02/21 07:55:29;;;;;;;0.90;0.90;;;;;;;;;;5076471;28;20028;-71
2024/02/21 07:57:55;;;;;;;0.90;0.90;;;;;;;;;;5074724;28;20032;-72
2024/02/21 08:00:22;;;;;;;0.90;0.90;;;;;;;;;;5079311;28;20977;-72
2024/02/21 08:02:49;;;;;;;0.90;0.90;;;;;;;;;;5077722;28;20391;-71
2024/02/21 08:05:15;;;;;;;0.93;0.93;;;;;;;;;;5076762;28;20035;-70
2024/02/21 08:07:41;;;;;;;1.00;1.00;;;;;;;;;;5073875;28;20031;-61
2024/02/21 08:10:08;;;;;;;1.00;1.00;;;;;;;;;;5076054;28;20799;-62
2024/02/21 08:12:34;;;;;;;0.85;0.85;;;;;;;;;;5076035;28;20025;-61
2024/02/21 08:15:01;;;;;;;0.90;0.90;;;;;;;;;;5077895;28;20028;-63
2024/02/21 08:17:27;;;;;;;1.00;1.00;;;;;;;;;;5072904;28;20020;-62
2024/02/21 08:19:53;;;;;;;1.00;1.00;;;;;;;;;;5071341;28;20545;-61
2024/02/21 08:22:19;;;;;;;1.02;1.02;;;;;;;;;;5070107;28;20071;-62
2024/02/21 08:24:46;;;;;;;1.17;1.17;;;;;;;;;;5071725;28;20057;-63
2024/02/21 08:27:12;;;;;;;1.00;1.00;;;;;;;;;;5074665;28;20055;-63
2024/02/21 08:29:38;;;;;;;0.90;0.90;;;;;;;;;;5066941;28;20155;-62
2024/02/21 08:32:04;;;;;;;3.50;1.05;;;;;;;;;;5071043;28;20480;-61
2024/02/21 08:34:33;;;;;;;1.00;1.00;;;;;;;;;;5070385;28;20020;-60
2024/02/21 08:37:00;;;;;;;1.88;0.90;;;;;;;;;;5069065;28;20615;-62
2024/02/21 08:39:28;;;;;;;1.10;1.10;;;;;;;;;;5064587;28;20446;-61
2024/02/21 08:41:54;;;;;;;1.08;1.08;;;;;;;;;;5070443;28;20028;-64
2024/02/21 08:44:23;;;;;;;1.00;1.00;;;;;;;;;;5073425;28;20028;-60
2024/02/21 08:46:49;;;;;;;1.00;1.00;;;;;;;;;;5071391;28;20038;-61
2024/02/21 08:49:16;;;;;;;1.10;1.10;;;;;;;;;;5065612;28;20453;-63
2024/02/21 08:51:43;;;;;;;1.00;1.00;;;;;;;;;;5060887;28;20028;-61
2024/02/21 08:54:09;;;;;;;0.90;0.90;;;;;;;;;;5073687;28;20043;-61
2024/02/21 08:56:35;;;;;;;0.90;0.90;;;;;;;;;;5069404;28;20478;-61
2024/02/21 08:59:01;;;;;;;1.25;1.17;;;;;;;;;;5075349;28;20458;-62
2024/02/21 09:01:28;;;;;;;1.20;1.20;;;;;;;;;;5067125;28;20052;-61
2024/02/21 09:03:56;;;;;;;0.95;0.95;;;;;;;;;;5066468;28;20957;-61
2024/02/21 09:06:22;;;;;;;0.90;0.90;;;;;;;;;;5068216;28;20021;-61
2024/02/21 09:08:48;;;;;;;0.90;0.90;;;;;;;;;;5072033;28;20028;-60
2024/02/21 09:11:15;;;;;;;1.10;1.10;;;;;;;;;;5068705;28;20028;-61
2024/02/21 09:13:41;;;;;;;1.00;1.00;;;;;;;;;;5074413;28;20107;-63
2024/02/21 09:16:08;;;;;;;1.10;1.10;;;;;;;;;;5071505;28;20032;-62
2024/02/21 09:18:35;;;;;;;1.42;1.15;;;;;;;;;;5060173;28;20036;-62
2024/02/21 09:21:01;;;;;;;1.05;1.05;;;;;;;;;;5073765;28;20408;-62
2024/02/21 09:23:28;;;;;;;1.00;1.00;;;;;;;;;;5076817;28;20119;-62
2024/02/21 09:25:55;;;;;;;1.00;1.00;;;;;;;;;;5077979;28;20020;-62
2024/02/21 09:28:22;;;;;;;0.93;0.93;;;;;;;;;;5067943;28;20378;-61
2024/02/21 09:30:48;;;;;;;0.93;0.93;;;;;;;;;;5074848;28;20028;-62
2024/02/21 09:33:14;;;;;;;0.95;0.95;;;;;;;;;;5065518;28;20471;-64
2024/02/21 09:35:40;;;;;;;1.02;1.02;;;;;;;;;;5073386;28;20435;-62
2024/02/21 09:38:06;;;;;;;1.25;1.20;;;;;;;;;;5074030;28;20039;-62
2024/02/21 09:40:33;;;;;;;1.20;1.20;;;;;;;;;;5076792;28;20047;-61
2024/02/21 09:43:08;;;;;;;1.10;1.10;;;;;;;;;;5069459;28;20453;-68
2024/02/21 09:45:34;;;;;;;;;;;;;;;;;;5073629;28;20395;-60
2024/02/21 09:48:13;;;;;;;1.10;1.10;;;;;;;;;;5073698;28;20485;-62
2024/02/21 09:50:41;;;;;;;1.10;1.10;;;;;;;;;;5071691;28;20069;-64
2024/02/21 09:53:07;;;;;;;1.50;1.23;;;;;;;;;;5075414;28;20024;-62
2024/02/21 09:55:34;;;;;;;1.10;1.10;;;;;;;;;;5074813;28;20008;-61
2024/02/21 09:58:03;;;;;;;1.10;1.10;;;;;;;;;;5064106;28;20032;-61
2024/02/21 10:00:29;;;;;;;1.80;1.75;;;;;;;;;;5076475;28;20044;-61
2024/02/21 10:02:55;;;;;;;1.00;1.00;;;;;;;;;;5071697;28;20025;-64
2024/02/21 10:05:21;;;;;;;1.20;1.20;;;;;;;;;;5073194;28;20036;-60
2024/02/21 10:07:49;;;;;;;1.08;1.08;;;;;;;;;;5074140;28;20036;-62
2024/02/21 10:10:16;;;;;;;1.00;1.00;;;;;;;;;;5074640;28;20073;-62
2024/02/21 10:12:54;;;;;;;1.00;1.00;;;;;;;;;;5071895;28;20035;-62
2024/02/21 10:15:22;;;;;;;1.10;1.10;;;;;;;;;;5055960;28;20024;-72
2024/02/21 10:17:49;;;;;;;1.00;1.00;;;;;;;;;;5073062;28;20031;-72
2024/02/21 10:20:16;;;;;;;1.00;1.00;;;;;;;;;;5070921;28;20480;-72
2024/02/21 10:22:42;;;;;;;1.75;1.10;;;;;;;;;;5072430;28;20117;-71
2024/02/21 10:25:12;;;;;;;1.10;1.10;;;;;;;;;;5073938;28;20467;-73
2024/02/21 10:27:39;;;;;;;1.00;1.00;;;;;;;;;;5072591;28;20131;-72
2024/02/21 10:30:13;;;;;;;0.90;0.90;;;;;;;;;;5062124;28;20333;-72
2024/02/21 10:32:52;;;;;;;0.90;0.90;;;;;;;;;;5064127;28;20027;-75
2024/02/21 10:35:32;;;;;;;1.20;1.20;;;;;;;;;;5073124;28;20081;-63
2024/02/21 10:37:59;;;;;;;1.00;1.00;;;;;;;;;;5070508;28;20150;-60
2024/02/21 10:40:32;;;;;;;1.35;1.30;;;;;;;;;;5052810;28;20051;-62
2024/02/21 10:42:59;;;;;;;1.05;1.00;;;;;;;;;;5066906;28;20605;-61
2024/02/21 10:45:30;;;;;;;1.10;1.10;;;;;;;;;;5070157;28;20040;-61
2024/02/21 10:47:56;;;;;;;1.10;1.10;;;;;;;;;;5071514;28;20189;-61
2024/02/21 10:50:25;;;;;;;1.00;1.00;;;;;;;;;;5070014;28;20066;-61
2024/02/21 10:53:09;;;;;;;1.10;1.10;;;;;;;;;;5073980;28;20024;-62
2024/02/21 10:55:42;;;;;;;1.00;1.00;;;;;;;;;;5074445;28;20543;-61
2024/02/21 10:58:10;;;;;;;1.38;1.10;;;;;;;;;;5072652;28;21098;-61
2024/02/21 11:00:37;;;;;;;1.20;1.20;;;;;;;;;;5069945;28;20457;-61
2024/02/21 11:03:04;;;;;;;1.10;1.10;;;;;;;;;;5073011;28;20625;-64
2024/02/21 11:05:31;;;;;;;1.27;1.20;;;;;;;;;;5065861;28;20111;-61
2024/02/21 11:07:58;;;;;;;1.13;1.10;;;;;;;;;;5063117;28;20031;-61
2024/02/21 11:10:25;;;;;;;1.35;1.25;;;;;;;;;;5067358;28;20395;-60
2024/02/21 11:13:09;;;;;;;1.95;1.02;;;;;;;;;;5065002;28;21338;-60
2024/02/21 11:15:35;;;;;;;1.10;1.10;;;;;;;;;;5069358;28;20040;-68
2024/02/21 11:18:02;;;;;;;1.08;1.08;;;;;;;;;;5069254;28;20031;-63
2024/02/21 11:20:34;;;;;;;1.10;1.10;;;;;;;;;;5071601;28;20059;-61
2024/02/21 11:23:01;;;;;;;0.93;0.93;;;;;;;;;;5070660;28;20062;-61
2024/02/21 11:25:28;;;;;;;1.00;1.00;;;;;;;;;;5068036;28;20047;-63
2024/02/21 11:28:05;;;;;;;1.23;1.00;;;;;;;;;;5071726;28;20027;-61
2024/02/21 11:30:32;;;;;;;1.05;1.00;;;;;;;;;;5052344;28;20085;-63
2024/02/21 11:33:07;;;;;;;1.10;0.90;;;;;;;;;;5071441;28;20054;-61
2024/02/21 11:35:34;;;;;;;1.10;1.10;;;;;;;;;;5069365;28;20604;-61
2024/02/21 11:38:19;;;;;;;1.50;1.40;;;;;;;;;;5072348;28;20275;-62
2024/02/21 11:40:47;;;;;;;1.30;1.30;;;;;;;;;;5076271;28;20039;-62
2024/02/21 11:43:13;;;;;;;1.10;1.10;;;;;;;;;;5073016;28;20020;-62
2024/02/21 11:45:39;;;;;;;1.30;1.30;;;;;;;;;;5070178;28;20509;-62
2024/02/21 11:48:08;;;;;;;1.10;1.10;;;;;;;;;;5070890;28;20036;-61
2024/02/21 11:50:36;;;;;;;2.15;1.13;;;;;;;;;;5073033;28;20025;-72
2024/02/21 11:53:02;;;;;;;1.67;1.30;;;;;;;;;;5073561;28;20047;-71
2024/02/21 11:55:29;;;;;;;1.38;1.15;;;;;;;;;;5075828;28;20665;-72
2024/02/21 11:57:55;;;;;;;1.35;1.30;;;;;;;;;;5072954;28;20040;-71
2024/02/21 12:00:21;;;;;;;1.17;1.17;;;;;;;;;;5073594;28;20041;-71
2024/02/21 12:02:48;;;;;;;1.02;1.02;;;;;;;;;;5070454;28;20027;-73
2024/02/21 12:05:14;;;;;;;1.13;1.10;;;;;;;;;;5069299;28;20024;-71
2024/02/21 12:07:41;;;;;;;1.00;1.00;;;;;;;;;;5060167;28;20024;-72
2024/02/21 12:10:14;;;;;;;1.02;1.02;;;;;;;;;;5067246;28;20369;-71
2024/02/21 12:12:41;;;;;;;1.08;1.05;;;;;;;;;;5059062;28;20027;-72
2024/02/21 12:15:08;;;;;;;1.00;1.00;;;;;;;;;;5068077;28;20066;-71
2024/02/21 12:17:35;;;;;;;1.20;1.20;;;;;;;;;;5056803;28;20564;-72
2024/02/21 12:20:01;;;;;;;1.20;1.10;;;;;;;;;;5065250;28;20051;-71
2024/02/21 12:22:27;;;;;;;1.40;1.27;;;;;;;;;;5054634;28;20508;-71
2024/02/21 12:24:54;;;;;;;1.80;1.70;;;;;;;;;;5053924;28;20078;-71
2024/02/21 12:27:21;;;;;;;2.28;1.90;;;;;;;;;;5052401;28;20036;-72
2024/02/21 12:29:48;;;;;;;2.35;1.70;;;;;;;;;;5057376;28;20024;-72
2024/02/21 12:32:14;;;;;;;4.95;1.60;;;;;;;;;;5059623;28;20114;-72
2024/02/21 12:34:40;;;;;;;1.60;1.50;;;;;;;;;;5065131;28;20036;-72
2024/02/21 12:37:07;;;;;;;2.17;1.60;;;;;;;;;;5063021;28;20099;-73
2024/02/21 12:39:33;;;;;;;1.88;1.70;;;;;;;;;;5094741;27;20278;-71
2024/02/21 12:41:59;;;;;;;2.10;1.58;;;;;;;;;;5084806;28;20105;-71
2024/02/21 12:44:25;;;;;;;5.57;2.10;;;;;;;;;;5058053;28;20028;-72
2024/02/21 12:46:53;;;;;;;4.40;1.77;;;;;;;;;;5056245;28;20087;-71
2024/02/21 12:49:19;;;;;;;3.22;1.80;;;;;;;;;;5063145;28;20582;-72
2024/02/21 12:51:49;;;;;;;1.65;1.50;;;;;;;;;;5057665;28;20476;-72
2024/02/21 12:54:15;;;;;;;1.52;1.42;;;;;;;;;;5055790;28;20366;-72
2024/02/21 12:56:41;;;;;;;1.55;1.45;;;;;;;;;;5064442;28;20091;-72
2024/02/21 12:59:10;;;;;;;2.05;1.55;;;;;;;;;;5053188;28;20035;-73
2024/02/21 13:01:40;;;;;;;4.72;1.85;;;;;;;;;;5047788;28;20045;-77
2024/02/21 13:04:06;;;;;;;6.50;2.00;;;;;;;;;;5066110;28;20036;-72
2024/02/21 13:06:32;;;;;;;1.65;1.50;;;;;;;;;;5070063;28;20020;-72
2024/02/21 13:09:01;;;;;;;2.35;1.60;;;;;;;;;;5068500;28;20113;-72
2024/02/21 13:11:30;;;;;;;1.67;1.48;;;;;;;;;;5062216;28;20111;-72
2024/02/21 13:13:57;;;;;;;3.30;1.50;;;;;;;;;;5066912;28;20070;-73
2024/02/21 13:16:23;;;;;;;2.72;1.50;;;;;;;;;;5057903;28;20024;-72
2024/02/21 13:18:49;;;;;;;1.50;1.40;;;;;;;;;;5060051;28;20029;-72
2024/02/21 13:21:16;;;;;;;4.10;1.85;;;;;;;;;;5057721;28;20033;-72
2024/02/21 13:23:44;;;;;;;1.75;1.40;;;;;;;;;;5054769;28;20518;-71
2024/02/21 13:26:11;;;;;;;1.33;1.23;;;;;;;;;;5059805;28;20029;-75
2024/02/21 13:28:37;;;;;;;1.80;1.40;;;;;;;;;;5065828;28;20029;-71
2024/02/21 13:31:03;;;;;;;2.10;1.88;;;;;;;;;;5062524;28;20495;-71
2024/02/21 13:33:29;;;;;;;2.33;1.42;;;;;;;;;;5049324;28;20081;-72
2024/02/21 13:35:55;;;;;;;2.55;1.60;;;;;;;;;;5067444;28;20032;-72
2024/02/21 13:38:24;;;;;;;1.10;1.10;;;;;;;;;;5069048;28;20033;-71
2024/02/21 13:40:50;;;;;;;3.53;1.55;;;;;;;;;;5062121;28;20606;-72
2024/02/21 13:43:16;;;;;;;1.40;1.30;;;;;;;;;;5053330;28;20025;-72
2024/02/21 13:45:56;;;;;;;1.55;1.45;;;;;;;;;;5061646;28;20033;-72
2024/02/21 13:48:22;;;;;;;3.08;1.92;;;;;;;;;;5054055;28;20036;-72
2024/02/21 13:50:48;;;;;;;1.58;1.33;;;;;;;;;;5058543;28;20119;-72
2024/02/21 13:53:18;;;;;;;2.88;1.65;;;;;;;;;;5064793;28;20036;-72
2024/02/21 13:55:44;;;;;;;3.88;1.95;;;;;;;;;;5063051;28;20557;-71
2024/02/21 13:58:10;;;;;;;2.60;1.70;;;;;;;;;;5067328;28;20043;-74
2024/02/21 14:00:36;;;;;;;2.65;1.63;;;;;;;;;;5063169;28;20053;-71
2024/02/21 14:03:03;;;;;;;2.42;1.80;;;;;;;;;;5077386;28;20105;-72
2024/02/21 14:05:30;;;;;;;2.92;1.60;;;;;;;;;;5059599;28;20467;-72
2024/02/21 14:07:56;;;;;;;3.22;1.98;;;;;;;;;;5060970;28;20018;-72
2024/02/21 14:10:22;;;;;;;6.22;2.05;;;;;;;;;;5064043;28;20453;-71
2024/02/21 14:12:49;;;;;;;2.42;1.55;;;;;;;;;;5067693;28;20017;-71
2024/02/21 14:15:16;;;;;;;7.05;1.95;;;;;;;;;;5061346;28;20074;-71
2024/02/21 14:17:43;;;;;;;2.67;2.05;;;;;;;;;;5089998;28;20033;-71
2024/02/21 14:20:10;;;;;;;8.02;5.07;;;;;;;;;;5060309;28;20022;-71
2024/02/21 14:22:37;;;;;;;4.65;3.45;;;;;;;;;;5062775;28;20068;-70
2024/02/21 14:25:07;;;;;;;3.70;2.15;;;;;;;;;;5059371;28;20035;-71
2024/02/21 14:27:35;;;;;;;5.20;2.60;;;;;;;;;;5059244;28;20373;-72
2024/02/21 14:30:02;;;;;;;2.78;1.80;;;;;;;;;;5055246;28;20037;-71
2024/02/21 14:32:29;;;;;;;3.63;1.63;;;;;;;;;;5058672;28;20024;-72
2024/02/21 14:34:55;;;;;;;5.88;3.38;;;;;;;;;;5057431;28;20029;-71
2024/02/21 14:37:21;;;;;;;3.13;1.60;;;;;;;;;;5059970;28;20037;-70
2024/02/21 14:39:47;;;;;;;4.72;1.75;;;;;;;;;;5058545;28;20114;-71
2024/02/21 14:42:13;;;;;;;6.20;4.75;;;;;;;;;;5062975;28;20430;-69